Amity, MO

4:06 AM CDT on July 30, 2014 (GMT -0500)
Savannah (KMOSAVAN2) Elev 1060 ft | 39.94 °N, 94.75 °W | Change Station

Current weather conditions updated 4 seconds ago

Clear
Clear
59.4 °F
Feels Like 59.4 °F
N
0.7
Wind Variable Wind from NNW
Gusts 1.6 mph

Today is forecast to be Cooler than yesterday.

Today
High -- | Low -- °F
--% Chance of Precip.
Yesterday
High -- | Low -- °F
Precip. -- in
6:14 AM 8:33 PM
Waxing Crescent, 10% visible
Pressure 30.09 in
Visibility 10.0 miles
Clouds Clear
Dew Point 51 °F
Humidity 74%
Rainfall 0.00 in
Snow Depth Not available.
UV 0.0 out of 12
Pollen 6.60 out of 12
Air Quality Not available.
Flu Activity Not available.
METAR KSTJ 300853Z AUTO 00000KT 10SM CLR 16/14 A3010 RMK AO2 SLP187 T01560144 56005

More Conditions Fewer Conditions

Pressure 30.09 in
Visibility 10.0 miles
Clouds Clear
Dew Point 51 °F
Humidity 74%
Rainfall 0.00 in
Snow Depth Not available.
UV 0.0 out of 12
Pollen 6.60 out of 12
Air Quality Not available.
Flu Activity Not available.
METAR KSTJ 300853Z AUTO 00000KT 10SM CLR 16/14 A3010 RMK AO2 SLP187 T01560144 56005

More Conditions Fewer Conditions

10-Day Weather Forecast

Almanac

Astronomy

Jul. 30, 2014 Rise Set
Actual Time 6:14 AM CDT 8:33 PM CDT
Civil Twilight 5:44 AM CDT 9:03 PM CDT
Nautical Twilight 5:06 AM CDT 9:41 PM CDT
Astronomical Twilight 4:25 AM CDT 10:22 PM CDT
Moon 9:47 AM CDT 10:16 PM CDT
Length of Visible Light 15h 19m
Length of Day
14h 18m
Tomorrow will be 1m 56s shorter.
Waxing Crescent, 10% of the Moon is Illuminated
Today
Waxing Crescent
Aug 3
First Quarter
Aug 10
Full
Aug 17
Last Quarter
Aug 25
New

Today's Extremes

State Highs State Lows

Community

WunderPhotos

Upload Photos

1,739,018 photos uploaded!

WunderBlogs® & News

By Dr. Jeff Masters
Director of Meteorology, Weather Underground
By Kari Strenfel
Meteorologist, Weather Underground
By Christopher C. Burt
Weather Historian, Weather Underground
July 29, 2014
July 29, 2014
July 29, 2014

Nearby

Snow Depth

Station Depth Elevation
No new snow has been reported.

Earthquake Activity

City Distance Mag. Time & Date
No recent earthquake activity has been reported nearby.
Minimum magnitude displayed is 2.5.

Coastal Water Temperatures

Place Temperature
No Stations Reporting

Nearby Weather Stations

Station Location Temp. Dew Point Humidity Wind Precip. Elev Updated Type
Savannah, Savannah, MO 59.4 °F 51 °F 74% NNW  at  0.7 mph 0.00 in / hr 1060 ft 4:06 AM CDT Rapid Fire
Empire Prairie, Rea, MO 58.8 °F 56 °F 92% NNE  at  0.0 mph 0.00 in / hr 1056 ft 4:06 AM CDT Rapid Fire
Rockwood Village, Cameron, MO 58.1 °F 55 °F 88% SW  at  0.0 mph - / hr 902 ft 1:09 AM CDT Normal
St Joseph, MO 63.5 °F 52 °F 66% ESE  at  0.0 mph 0.00 in / hr 965 ft 4:00 AM CDT Normal
Wyatt Park, St Joseph, MO 64.5 °F 58 °F 79% NNE  at  0.0 mph 0.00 in / hr 1000 ft 4:06 AM CDT Rapid Fire
East of Savannah, MO, Savannah, MO 63.9 °F 55 °F 73% NE  at  3.1 mph - / hr 1145 ft 1:06 AM CDT Normal

Show More Stations Show Fewer Stations